Time;durP1;ratioP1;P1;durP2;ratioP2;P2;SDS_P1;SDS_P2;PMS_P1;PMS_P2;Temp;Humidity;BMP_temperature;BMP_pressure;BME280_temperature;BME280_humidity;BME280_pressure;Samples;Min_cycle;Max_cycle;Signal;HPM_P1;HPM_P2
2022/06/12 00:01:54;;;;;;;7.17;5.77;;;;;;;19.58;76.84;96559.75;5048141;28;20204;-73
2022/06/12 00:04:21;;;;;;;6.17;5.20;;;;;;;19.59;76.51;96566.63;5059241;28;20196;-73
2022/06/12 00:06:48;;;;;;;7.67;5.70;;;;;;;19.62;76.59;96551.41;5029136;28;20235;-72
2022/06/12 00:09:15;;;;;;;6.77;5.67;;;;;;;19.58;76.34;96557.13;5047649;28;20689;-73
2022/06/12 00:11:44;;;;;;;6.23;5.60;;;;;;;19.52;76.92;96553.22;5046577;28;20197;-73
2022/06/12 00:14:15;;;;;;;5.73;5.13;;;;;;;19.51;77.66;96563.88;5029668;28;20195;-72
2022/06/12 00:16:43;;;;;;;6.57;5.97;;;;;;;19.40;76.05;96536.75;5064598;28;20200;-73
2022/06/12 00:19:11;;;;;;;5.47;4.93;;;;;;;19.55;76.06;96560.84;5067318;28;20293;-73
2022/06/12 00:21:40;;;;;;;6.00;5.17;;;;;;;19.56;75.84;96570.38;5066809;28;20893;-73
2022/06/12 00:24:11;;;;;;;6.67;5.20;;;;;;;19.62;75.37;96579.50;5066497;28;20196;-72
2022/06/12 00:26:42;;;;;;;6.23;5.00;;;;;;;19.61;75.41;96562.06;5067303;28;20240;-72
2022/06/12 00:29:11;;;;;;;5.37;4.87;;;;;;;19.55;76.07;96557.38;5065884;28;20198;-73
2022/06/12 00:31:41;;;;;;;7.13;4.97;;;;;;;19.57;76.45;96551.03;5067498;28;20183;-73
2022/06/12 00:34:10;;;;;;;6.90;4.70;;;;;;;19.55;76.42;96560.00;5066251;28;20636;-72
2022/06/12 00:36:37;;;;;;;5.23;4.07;;;;;;;19.63;76.04;96560.97;5067308;28;20199;-72
2022/06/12 00:39:06;;;;;;;4.77;4.27;;;;;;;19.61;75.95;96556.81;5067070;28;20207;-71
2022/06/12 00:41:33;;;;;;;5.53;4.47;;;;;;;19.61;76.81;96541.06;5066552;28;20196;-72
2022/06/12 00:44:00;;;;;;;5.57;3.77;;;;;;;19.59;76.50;96540.38;5067347;28;20676;-73
2022/06/12 00:46:38;;;;;;;4.97;3.77;;;;;;;19.55;76.25;96536.34;5065874;28;20223;-72
2022/06/12 00:49:31;;;;;;;4.40;3.50;;;;;;;19.58;76.14;96536.91;5049379;28;20192;-74
2022/06/12 00:52:32;;;;;;;5.13;4.03;;;;;;;19.49;76.16;96543.81;5012016;28;20188;-73
2022/06/12 00:55:24;;;;;;;4.73;3.13;;;;;;;19.53;75.80;96540.91;5047985;28;20190;-73
2022/06/12 00:58:01;;;;;;;3.10;2.80;;;;;;;19.51;76.02;96529.72;5067121;28;20196;-73
2022/06/12 01:00:28;;;;;;;5.80;3.53;;;;;;;19.44;76.61;96545.19;5066604;28;20560;-73
2022/06/12 01:02:57;;;;;;;3.73;3.30;;;;;;;19.36;77.54;96527.50;5066203;28;20195;-73
2022/06/12 01:08:10;;;;;;;3.97;3.17;;;;;;;19.37;78.72;96554.59;5046010;28;20601;-72
2022/06/12 01:10:41;;;;;;;3.53;3.23;;;;;;;19.37;78.96;96552.78;5046986;28;20667;-73
2022/06/12 01:13:13;;;;;;;3.97;3.57;;;;;;;19.32;79.36;96547.09;5028475;28;20306;-72
2022/06/12 01:15:53;;;;;;;5.33;3.20;;;;;;;19.12;80.77;96541.94;5046631;28;20218;-71
2022/06/12 01:18:27;;;;;;;3.50;3.20;;;;;;;19.06;81.08;96545.91;5047250;28;20196;-71
2022/06/12 01:21:16;;;;;;;3.53;2.30;;;;;;;19.11;80.75;96530.59;5045805;28;20618;-72
2022/06/12 01:23:56;;;;;;;3.03;2.73;;;;;;;19.15;81.21;96537.22;5046956;28;20210;-73
2022/06/12 01:26:48;;;;;;;3.40;3.00;;;;;;;19.13;81.83;96523.41;5046392;28;20273;-74
2022/06/12 01:29:25;;;;;;;2.40;2.20;;;;;;;19.16;80.40;96507.41;5045881;28;20192;-77
2022/06/12 01:32:02;;;;;;;2.23;2.00;;;;;;;19.10;80.37;96521.03;5029093;28;20203;-77
2022/06/12 01:34:54;;;;;;;2.00;1.90;;;;;;;19.12;79.49;96513.88;5045833;28;20195;-76
2022/06/12 01:37:48;;;;;;;2.27;1.80;;;;;;;19.15;78.46;96518.00;5045875;28;20219;-77
2022/06/12 01:40:28;;;;;;;2.37;2.00;;;;;;;19.22;78.33;96512.09;5039327;28;20197;-77
2022/06/12 01:43:02;;;;;;;2.50;2.30;;;;;;;19.28;78.99;96519.44;5049181;28;20184;-76
2022/06/12 01:45:41;;;;;;;2.30;2.00;;;;;;;19.20;77.84;96527.16;5032144;28;20606;-75
2022/06/12 01:48:26;;;;;;;2.27;2.00;;;;;;;19.20;77.82;96526.34;5050121;28;20196;-74
2022/06/12 01:50:59;;;;;;;2.37;2.07;;;;;;;19.27;77.85;96523.03;5049233;28;20274;-76
2022/06/12 01:53:39;;;;;;;2.13;1.93;;;;;;;19.21;78.27;96507.81;5050466;28;20230;-75
2022/06/12 01:56:19;;;;;;;2.47;2.07;;;;;;;19.23;78.06;96524.25;5049086;28;20189;-75
2022/06/12 01:59:02;;;;;;;2.00;1.90;;;;;;;19.19;77.99;96522.88;5049819;28;20188;-76
2022/06/12 02:01:47;;;;;;;2.13;1.93;;;;;;;19.19;77.75;96509.75;5050046;28;20189;-76
2022/06/12 02:04:18;;;;;;;2.20;2.00;;;;;;;19.24;76.81;96517.22;5048407;28;20197;-75
2022/06/12 02:07:16;;;;;;;2.03;1.90;;;;;;;19.27;76.69;96512.50;5050139;28;20230;-73
2022/06/12 02:10:04;;;;;;;2.33;2.13;;;;;;;19.31;77.51;96513.91;5049840;28;20193;-76
2022/06/12 02:15:59;;;;;;;2.10;1.80;;;;;;;19.15;78.02;96513.59;5035201;28;20238;-72
2022/06/12 02:18:41;;;;;;;3.20;2.07;;;;;;;19.01;78.89;96514.00;5049773;28;20222;-72
2022/06/12 02:21:16;;;;;;;2.20;2.00;;;;;;;19.08;78.89;96516.91;5048439;28;20575;-74
2022/06/12 02:24:04;;;;;;;2.50;2.17;;;;;;;19.09;77.54;96511.53;5049650;28;20183;-73
2022/06/12 02:26:38;;;;;;;3.03;2.20;;;;;;;19.11;77.35;96514.00;5048480;28;20234;-74
2022/06/12 02:29:11;;;;;;;2.97;2.67;;;;;;;19.10;77.33;96501.84;5048844;28;20715;-73
2022/06/12 02:31:42;;;;;;;2.43;1.87;;;;;;;19.14;76.59;96506.72;5049430;28;21676;-73
2022/06/12 02:34:18;;;;;;;3.60;2.57;;;;;;;19.17;76.02;96503.78;5048027;28;20196;-72
2022/06/12 02:36:50;;;;;;;2.53;2.30;;;;;;;19.04;76.66;96502.41;5049371;28;20537;-72
2022/06/12 02:39:26;;;;;;;2.60;2.40;;;;;;;19.14;76.32;96517.22;5030227;28;20204;-74
2022/06/12 02:42:02;;;;;;;2.60;2.40;;;;;;;19.20;76.73;96532.41;5048986;28;20192;-73
2022/06/12 02:44:29;;;;;;;2.80;2.17;;;;;;;19.17;76.04;96532.69;5049032;28;20192;-73
2022/06/12 02:47:06;;;;;;;2.57;2.37;;;;;;;19.14;76.19;96538.22;5047952;28;20224;-73
2022/06/12 02:49:34;;;;;;;2.73;2.50;;;;;;;19.20;76.43;96531.59;5049209;28;20188;-72
2022/06/12 02:52:06;;;;;;;2.70;2.50;;;;;;;19.14;76.97;96532.13;5029799;28;20671;-73
2022/06/12 02:54:41;;;;;;;2.20;2.00;;;;;;;19.21;76.90;96534.06;5048708;28;20249;-74
2022/06/12 02:57:20;;;;;;;2.93;2.57;;;;;;;19.17;77.05;96527.44;5048917;28;20191;-73
2022/06/12 03:00:19;;;;;;;2.37;1.80;;;;;;;19.17;77.48;96530.06;5047980;28;20242;-73
2022/06/12 03:02:56;;;;;;;3.50;2.17;;;;;;;19.14;77.84;96535.59;5048889;28;20259;-73
2022/06/12 03:05:29;;;;;;;2.67;2.30;;;;;;;19.07;78.76;96531.81;5048164;28;20195;-72
2022/06/12 03:08:16;;;;;;;3.83;2.40;;;;;;;19.02;79.62;96536.63;5048288;28;20199;-73
2022/06/12 03:10:53;;;;;;;5.20;2.50;;;;;;;18.93;80.14;96539.25;5048710;28;20187;-72
2022/06/12 03:13:25;;;;;;;2.77;2.47;;;;;;;18.45;80.03;96470.84;5047262;28;20259;-72
2022/06/12 03:15:59;;;;;;;2.50;2.30;;;;;;;18.78;81.20;96546.63;5048532;28;20270;-72
2022/06/12 03:18:30;;;;;;;2.93;2.67;;;;;;;18.88;80.92;96549.28;5029843;28;20200;-72
2022/06/12 03:21:06;;;;;;;2.70;2.50;;;;;;;18.84;81.65;96538.25;5047985;28;20198;-73
2022/06/12 03:23:32;;;;;;;2.70;2.50;;;;;;;18.80;81.49;96542.09;5048634;28;20188;-72
2022/06/12 03:26:04;;;;;;;3.33;3.03;;;;;;;18.69;82.47;96547.44;5047107;28;20261;-74
2022/06/12 03:29:04;;;;;;;3.17;2.80;;;;;;;18.67;82.94;96531.81;5048451;28;20188;-73
2022/06/12 03:32:09;;;;;;;2.43;2.23;;;;;;;18.76;82.57;96543.31;5047916;28;20206;-73
2022/06/12 03:34:42;;;;;;;3.20;1.97;;;;;;;18.78;82.20;96545.81;4966020;28;20202;-74
2022/06/12 03:37:17;;;;;;;2.07;1.87;;;;;;;18.82;81.91;96550.66;4967193;28;20212;-75
2022/06/12 03:40:07;;;;;;;3.10;2.07;;;;;;;18.84;82.23;96553.97;5018086;28;20207;-73
2022/06/12 03:42:53;;;;;;;1.80;1.70;;;;;;;18.99;82.12;96552.66;5048271;28;20297;-74
2022/06/12 03:45:51;;;;;;;1.70;1.60;;;;;;;19.11;81.19;96564.72;5048577;28;20187;-75
2022/06/12 03:48:35;;;;;;;1.40;1.30;;;;;;;19.09;81.69;96556.16;5001969;28;20663;-73
2022/06/12 03:51:15;;;;;;;1.60;1.50;;;;;;;19.18;81.35;96562.38;5030303;28;20558;-73
2022/06/12 03:54:26;;;;;;;1.63;1.53;;;;;;;19.16;80.83;96567.78;5030189;28;20192;-73
2022/06/12 03:59:56;;;;;;;1.50;1.40;;;;;;;19.29;81.13;96567.50;5047903;28;20686;-74
2022/06/12 04:02:27;;;;;;;1.50;1.40;;;;;;;19.31;81.03;96571.66;5014046;28;20562;-74
2022/06/12 04:04:56;;;;;;;1.90;1.70;;;;;;;19.37;81.05;96576.41;5028485;28;20188;-73
2022/06/12 04:07:26;;;;;;;1.90;1.70;;;;;;;19.27;81.68;96574.69;5030290;28;20260;-73
2022/06/12 04:09:57;;;;;;;1.60;1.50;;;;;;;19.32;81.82;96572.50;5029426;28;20223;-73
2022/06/12 04:12:30;;;;;;;6.13;3.20;;;;;;;19.23;82.45;96568.88;5029824;28;20664;-74
2022/06/12 04:15:15;;;;;;;3.03;2.53;;;;;;;18.99;83.98;96571.03;5047818;28;20582;-75
2022/06/12 04:17:43;;;;;;;4.10;2.60;;;;;;;19.13;83.41;96572.44;5046557;28;20555;-73
2022/06/12 04:20:18;;;;;;;3.00;2.70;;;;;;;19.24;83.36;96567.94;5048069;28;20773;-75
2022/06/12 04:23:01;;;;;;;2.80;2.60;;;;;;;19.31;82.95;96571.66;5046792;28;20250;-75
2022/06/12 04:25:35;;;;;;;4.83;2.80;;;;;;;19.43;82.63;96575.88;5047134;28;20826;-73
2022/06/12 04:28:06;;;;;;;2.70;2.50;;;;;;;19.38;82.83;96588.59;5047689;28;20242;-75
2022/06/12 04:30:38;;;;;;;5.57;3.17;;;;;;;19.39;82.25;96576.31;5046338;28;20683;-74
2022/06/12 04:33:17;;;;;;;3.67;2.73;;;;;;;19.39;81.77;96577.09;5029731;28;20259;-76
2022/06/12 04:35:53;;;;;;;2.93;2.63;;;;;;;19.58;81.23;96583.38;5046290;28;20199;-77
2022/06/12 04:38:21;;;;;;;3.00;2.70;;;;;;;19.65;79.90;96581.84;5029178;28;20715;-74
2022/06/12 04:40:49;;;;;;;2.97;2.70;;;;;;;19.61;79.53;96583.09;5047142;28;20185;-77
2022/06/12 08:24:11;;;;;;;5.40;4.83;;;;;;;20.87;71.33;96695.06;5043642;28;20612;-77
2022/06/12 08:27:34;;;;;;;7.67;5.97;;;;;;;20.79;71.73;96709.91;5048481;28;20192;-76
2022/06/12 08:30:54;;;;;;;6.70;5.60;;;;;;;20.83;71.18;96717.41;5048610;28;20199;-76
2022/06/12 08:34:15;;;;;;;6.50;5.90;;;;;;;20.80;71.00;96717.66;5049029;28;20193;-79
2022/06/12 08:37:36;;;;;;;6.57;5.80;;;;;;;20.71;72.38;96715.84;5066546;28;20625;-77
2022/06/12 08:40:48;;;;;;;7.97;6.07;;;;;;;20.79;73.33;96718.63;5069437;28;20189;-76
2022/06/12 08:43:57;;;;;;;6.40;5.80;;;;;;;20.82;73.06;96720.97;5068535;28;20181;-73
2022/06/12 08:47:51;;;;;;;6.87;5.70;;;;;;;20.83;72.79;96727.94;5067414;28;20185;-74
2022/06/12 08:50:40;;;;;;;5.67;5.13;;;;;;;20.84;73.35;96712.94;5068759;28;20189;-76
2022/06/12 08:53:23;;;;;;;6.77;6.13;;;;;;;20.83;73.46;96717.41;5071316;28;20188;-73
2022/06/12 08:56:28;;;;;;;6.60;5.57;;;;;;;20.82;73.14;96712.25;5054195;28;20212;-77
2022/06/12 08:59:04;;;;;;;11.47;6.80;;;;;;;20.87;73.58;96713.50;5016253;28;20201;-73
2022/06/12 09:01:31;;;;;;;7.13;5.70;;;;;;;20.77;73.88;96712.66;5071117;28;20185;-73
2022/06/12 09:03:58;;;;;;;6.93;5.70;;;;;;;20.77;73.10;96711.84;5071359;28;20668;-74
2022/06/12 09:06:39;;;;;;;7.80;6.37;;;;;;;20.64;73.67;96716.56;5070397;28;20182;-71
2022/06/12 09:09:41;;;;;;;6.73;6.10;;;;;;;20.67;73.35;96732.09;5070915;28;20213;-74
2022/06/12 09:12:26;;;;;;;7.53;5.83;;;;;;;20.64;73.67;96717.41;5070190;28;20195;-76
2022/06/12 09:15:06;;;;;;;10.37;6.63;;;;;;;20.58;73.92;96717.13;5052129;28;20201;-75
2022/06/12 09:17:48;;;;;;;6.93;6.23;;;;;;;20.54;73.72;96723.63;5070945;28;20247;-73
2022/06/12 09:20:38;;;;;;;7.17;6.47;;;;;;;20.58;73.04;96725.84;5051329;28;20575;-73
2022/06/12 09:23:31;;;;;;;12.37;6.43;;;;;;;20.66;73.83;96719.88;5069952;28;20208;-73
2022/06/12 09:26:29;;;;;;;7.50;6.03;;;;;;;20.60;73.79;96731.81;5036517;28;20196;-70
2022/06/12 09:29:13;;;;;;;9.00;7.73;;;;;;;20.59;74.91;96724.03;5069292;28;20620;-72
2022/06/12 09:31:57;;;;;;;11.63;7.30;;;;;;;20.58;75.60;96727.66;5052641;28;20186;-74
2022/06/12 09:34:53;;;;;;;6.70;6.00;;;;;;;20.46;76.44;96734.88;5052188;28;20638;-74
2022/06/12 09:40:27;;;;;;;7.80;6.90;;;;;;;20.48;77.95;96730.28;5052142;28;20205;-74
2022/06/12 09:43:03;;;;;;;8.33;7.33;;;;;;;20.54;78.60;96721.00;5069973;28;20199;-73
2022/06/12 09:45:37;;;;;;;7.87;7.00;;;;;;;20.57;78.62;96718.91;5050809;28;20195;-74
2022/06/12 09:48:07;;;;;;;7.97;6.40;;;;;;;20.53;78.79;96737.75;5052270;28;20229;-73
2022/06/12 09:51:11;;;;;;;8.10;6.37;;;;;;;20.43;79.65;96729.88;5068763;28;20189;-73
2022/06/12 09:54:20;;;;;;;6.87;6.17;;;;;;;20.33;78.89;96729.03;5068579;28;20679;-74
2022/06/12 09:57:25;;;;;;;9.43;6.83;;;;;;;20.40;78.91;96730.16;4998298;28;20662;-74
2022/06/12 10:00:05;;;;;;;6.57;5.80;;;;;;;20.43;79.22;96724.59;5051413;28;20254;-74
2022/06/12 10:03:03;;;;;;;7.67;5.70;;;;;;;20.52;79.13;96721.16;5067607;28;20189;-74
2022/06/12 10:05:55;;;;;;;7.00;6.30;;;;;;;20.59;79.54;96721.41;5034534;28;20220;-72
2022/06/12 10:08:37;;;;;;;10.20;6.67;;;;;;;20.68;79.25;96713.53;5033413;28;20692;-73
2022/06/12 10:11:10;;;;;;;7.30;6.20;;;;;;;20.66;79.25;96702.31;5043684;28;20684;-74
2022/06/12 10:13:51;;;;;;;6.57;5.87;;;;;;;20.44;79.43;96673.66;5054957;28;20248;-73
2022/06/12 10:16:23;;;;;;;6.53;5.93;;;;;;;20.64;79.97;96712.13;5050261;28;20828;-74
2022/06/12 10:19:20;;;;;;;6.10;5.60;;;;;;;20.57;80.21;96720.72;5050202;28;20197;-74
2022/06/12 10:21:50;;;;;;;6.77;5.60;;;;;;;20.58;80.50;96727.66;5049205;28;20189;-73
2022/06/12 10:24:19;;;;;;;5.97;5.37;;;;;;;20.53;80.64;96719.31;5030383;28;20247;-73
2022/06/12 10:26:59;;;;;;;5.50;4.40;;;;;;;20.51;79.96;96726.53;5049516;28;20687;-72
2022/06/12 10:29:39;;;;;;;6.20;4.67;;;;;;;20.66;80.18;96720.72;5030660;28;20271;-74
2022/06/12 10:32:12;;;;;;;4.83;4.33;;;;;;;20.72;79.31;96730.69;5049326;28;20330;-73
2022/06/12 10:34:39;;;;;;;4.90;4.50;;;;;;;20.76;79.66;96721.53;5014825;28;20671;-72
2022/06/12 10:37:20;;;;;;;4.50;4.10;;;;;;;20.70;79.19;96708.94;5030443;28;20182;-72
2022/06/12 10:40:03;;;;;;;11.10;5.23;;;;;;;20.92;78.90;96719.16;5049145;28;20218;-71
2022/06/12 10:42:39;;;;;;;5.33;4.17;;;;;;;20.87;79.80;96726.66;5048051;28;20684;-72
2022/06/12 10:45:33;;;;;;;4.80;4.40;;;;;;;21.01;78.75;96723.59;5048888;28;20182;-71
2022/06/12 10:48:18;;;;;;;5.07;4.53;;;;;;;20.94;79.21;96714.59;5049037;28;20213;-71
2022/06/12 10:50:52;;;;;;;6.87;5.23;;;;;;;21.02;78.83;96727.06;5047631;28;20222;-72
2022/06/12 10:53:23;;;;;;;6.77;4.63;;;;;;;20.99;79.08;96717.63;5048903;28;20205;-74
2022/06/12 10:56:16;;;;;;;4.13;3.73;;;;;;;20.81;79.30;96714.03;5048148;28;20638;-71
2022/06/12 10:58:52;;;;;;;3.13;2.83;;;;;;;20.71;79.71;96701.88;5030011;28;20183;-71
2022/06/12 11:01:51;;;;;;;2.80;2.60;;;;;;;20.57;80.56;96689.97;5048367;28;20251;-71
2022/06/12 11:04:37;;;;;;;2.50;2.30;;;;;;;20.48;79.91;96703.97;5048097;28;20645;-73
2022/06/12 11:07:17;;;;;;;2.50;2.30;;;;;;;20.55;80.35;96705.06;5030038;28;20236;-71
2022/06/12 11:10:05;;;;;;;3.60;2.10;;;;;;;20.71;79.79;96712.41;5048415;28;20225;-72
2022/06/12 11:12:53;;;;;;;3.10;2.40;;;;;;;20.97;79.63;96701.16;5047344;28;20621;-73
2022/06/12 11:15:34;;;;;;;3.33;3.00;;;;;;;21.08;78.63;96705.47;5030783;28;20203;-72
2022/06/12 11:18:18;;;;;;;3.83;3.47;;;;;;;21.20;78.32;96716.66;5048504;28;20729;-72
2022/06/12 11:21:09;;;;;;;4.97;4.00;;;;;;;21.25;76.12;96719.66;5047058;28;20220;-74
2022/06/12 11:23:48;;;;;;;3.77;3.37;;;;;;;21.34;74.75;96727.56;5038235;28;20198;-72
2022/06/12 11:26:40;;;;;;;4.27;3.37;;;;;;;21.35;75.12;96723.13;5048022;28;20194;-72
2022/06/12 11:29:22;;;;;;;5.53;4.37;;;;;;;21.44;75.19;96716.97;5047013;28;20229;-72
2022/06/12 11:32:00;;;;;;;4.50;4.10;;;;;;;21.63;74.45;96727.44;5057892;28;20190;-72
2022/06/12 11:34:35;;;;;;;4.20;3.80;;;;;;;21.68;74.09;96733.94;5067387;28;20676;-73
2022/06/12 11:37:14;;;;;;;;;;;;;;;21.33;73.91;96664.47;5050212;28;20078;-74
2022/06/12 11:39:44;;;;;;;;;;;;;;;21.64;74.68;96732.56;5068537;28;19927;-73
2022/06/12 11:42:23;;;;;;;;;;;;;;;21.68;73.88;96719.91;5049415;28;19927;-72
2022/06/12 11:45:03;;;;;;;;;;;;;;;21.88;73.57;96733.88;5068497;28;19924;-74
2022/06/12 11:47:39;;;;;;;;;;;;;;;22.06;71.52;96725.03;5067533;28;20019;-73
2022/06/12 11:50:05;;;;;;;;;;;;;;;21.99;72.48;96723.13;5049970;28;19925;-72
2022/06/12 11:53:08;;;;;;;4.70;3.93;;;;;;;22.08;72.72;96720.44;5063020;28;20012;-72
2022/06/12 11:55:47;;;;;;;5.03;4.50;;;;;;;22.20;71.70;96727.16;5058535;28;20202;-72
2022/06/12 11:58:21;;;;;;;5.37;4.17;;;;;;;22.07;70.93;96729.31;5066630;28;20197;-72
2022/06/12 12:01:09;;;;;;;5.57;4.90;;;;;;;22.11;71.72;96733.34;5066913;28;20244;-73
2022/06/12 12:04:12;;;;;;;5.37;4.87;;;;;;;22.17;71.94;96722.19;5048176;28;20189;-73
2022/06/12 12:07:12;;;;;;;6.80;5.00;;;;;;;22.27;71.60;96707.13;5067296;28;20276;-73
2022/06/12 12:10:07;;;;;;;4.90;4.23;;;;;;;22.36;71.10;96706.19;5012713;28;20242;-72
2022/06/12 12:12:40;;;;;;;5.20;4.20;;;;;;;22.14;70.82;96696.09;5065764;28;20202;-72
2022/06/12 12:15:19;;;;;;;7.30;5.00;;;;;;;22.39;70.81;96691.88;5049127;28;20233;-72
2022/06/12 12:17:48;;;;;;;4.53;4.13;;;;;;;22.20;70.36;96684.94;5066407;28;20281;-72
2022/06/12 12:20:27;;;;;;;4.63;4.23;;;;;;;22.14;70.08;96685.53;5048846;28;20587;-71
2022/06/12 12:23:13;;;;;;;5.70;4.30;;;;;;;22.11;70.75;96675.31;5033004;28;20598;-72
2022/06/12 12:25:48;;;;;;;4.93;4.43;;;;;;;22.08;70.59;96665.03;5065500;28;20313;-72
2022/06/12 12:28:29;;;;;;;4.73;4.27;;;;;;;22.16;70.10;96659.84;5067556;28;20208;-72
2022/06/12 12:31:01;;;;;;;5.37;4.87;;;;;;;22.20;69.57;96663.84;5066740;28;20198;-72
2022/06/12 12:33:28;;;;;;;6.23;4.90;;;;;;;22.21;70.24;96662.03;5066384;28;20569;-72
2022/06/12 12:41:53;;;;;;;5.43;4.63;;;;;;;22.21;71.44;96664.66;5066782;28;20246;-72
2022/06/12 12:44:33;;;;;;;5.13;4.63;;;;;;;22.31;69.85;96668.06;5049021;28;20209;-73
2022/06/12 12:47:02;;;;;;;6.17;4.60;;;;;;;22.16;70.17;96667.75;5065742;28;20726;-74
2022/06/12 12:49:32;;;;;;;5.67;3.97;;;;;;;22.05;70.01;96667.97;5037926;28;20255;-74
2022/06/12 12:52:16;;;;;;;5.47;4.73;;;;;;;22.08;69.95;96670.31;5028034;28;20189;-73
2022/06/12 12:54:48;;;;;;;5.47;4.40;;;;;;;21.99;70.01;96657.22;5028967;28;20183;-71
2022/06/12 12:57:19;;;;;;;5.37;4.70;;;;;;;22.10;70.36;96668.34;5046835;28;20201;-71
2022/06/12 12:59:50;;;;;;;5.63;4.60;;;;;;;21.96;70.30;96647.78;5045588;28;20613;-72
2022/06/12 13:02:27;;;;;;;5.57;4.77;;;;;;;21.94;70.67;96652.38;5046811;28;20193;-73
2022/06/12 13:05:37;;;;;;;6.28;5.00;;;;;;;22.02;70.91;96672.72;5046577;28;20523;-74
2022/06/12 13:08:37;;;;;;;6.47;5.27;;;;;;;22.01;70.93;96663.16;5027560;28;20202;-73
2022/06/12 13:12:08;;;;;;;6.43;5.10;;;;;;;21.98;70.24;96659.00;5044268;28;20285;-74
2022/06/12 13:15:13;;;;;;;5.87;5.07;;;;;;;22.01;71.19;96645.50;5045960;28;20654;-74
2022/06/12 13:18:19;;;;;;;7.47;5.57;;;;;;;21.96;72.45;96644.31;5044693;28;20282;-74
2022/06/12 13:21:18;;;;;;;6.10;5.50;;;;;;;21.97;73.48;96641.50;5044966;28;20201;-74
2022/06/12 13:24:09;;;;;;;8.50;6.40;;;;;;;22.00;74.89;96625.41;5045777;28;20237;-73
2022/06/12 13:27:45;;;;;;;6.83;6.20;;;;;;;22.00;74.60;96621.94;5044898;28;20198;-73
2022/06/12 13:31:06;;;;;;;7.37;6.10;;;;;;;22.03;75.72;96603.97;5026400;28;20218;-74
2022/06/12 13:34:30;;;;;;;10.30;6.03;;;;;;;22.24;75.69;96622.97;5045021;28;20277;-73
2022/06/12 13:37:54;;;;;;;10.57;7.17;;;;;;;22.25;74.32;96619.38;5046805;28;20739;-74
2022/06/12 13:40:55;;;;;;;9.53;6.77;;;;;;;22.20;74.45;96626.91;5033968;28;20253;-73
2022/06/12 13:43:56;;;;;;;9.63;7.60;;;;;;;22.25;74.59;96634.38;5048117;28;20190;-73
2022/06/12 13:47:17;;;;;;;8.13;6.73;;;;;;;22.21;74.39;96646.19;5049035;28;20933;-75
2022/06/12 13:50:44;;;;;;;6.60;6.00;;;;;;;22.22;73.36;96643.41;5048953;28;20226;-73
2022/06/12 13:53:25;;;;;;;7.20;6.50;;;;;;;22.23;73.31;96660.91;5048702;28;20197;-74
2022/06/12 13:55:57;;;;;;;8.03;6.00;;;;;;;22.13;73.74;96660.16;5049036;28;20192;-73
2022/06/12 13:58:39;;;;;;;6.20;5.23;;;;;;;21.98;73.67;96659.00;5050253;28;20576;-73
2022/06/12 14:01:17;;;;;;;6.57;5.97;;;;;;;22.01;73.91;96650.78;5048824;28;20186;-73
2022/06/12 14:03:55;;;;;;;6.33;5.73;;;;;;;21.90;73.51;96660.72;5049619;28;20198;-73
2022/06/12 14:06:26;;;;;;;9.03;6.07;;;;;;;21.91;73.61;96659.75;5049831;28;20190;-74
2022/06/12 14:09:21;;;;;;;8.77;6.53;;;;;;;21.81;73.85;96668.56;5030749;28;20279;-73
2022/06/12 14:11:50;;;;;;;7.07;6.37;;;;;;;21.76;72.87;96689.22;5029944;28;20628;-74
2022/06/12 14:14:20;;;;;;;7.63;6.17;;;;;;;21.81;72.61;96688.78;5030825;28;20197;-74
2022/06/12 14:16:47;;;;;;;7.93;6.03;;;;;;;21.71;72.62;96682.72;5031319;28;20202;-73
2022/06/12 14:19:28;;;;;;;10.13;6.33;;;;;;;21.69;72.86;96685.53;5049543;28;20702;-75
2022/06/12 14:22:22;;;;;;;8.67;6.53;;;;;;;21.64;73.20;96682.47;5030491;28;20213;-74
2022/06/12 14:24:56;;;;;;;6.97;6.27;;;;;;;21.64;73.60;96679.00;5046528;28;20237;-74
2022/06/12 14:27:36;;;;;;;6.23;4.80;;;;;;;21.60;71.63;96667.09;5030882;28;20192;-74
2022/06/12 14:30:06;;;;;;;6.27;5.20;;;;;;;21.69;71.60;96677.59;5048198;28;20279;-74
2022/06/12 14:32:45;;;;;;;5.97;4.63;;;;;;;21.64;70.82;96669.31;5031158;28;20625;-75
2022/06/12 14:35:17;;;;;;;7.53;5.10;;;;;;;21.80;70.59;96673.94;5030426;28;20217;-73
2022/06/12 14:37:44;;;;;;;4.83;4.17;;;;;;;21.71;70.35;96693.28;5037402;28;20204;-72
2022/06/12 14:40:29;;;;;;;3.60;3.30;;;;;;;21.73;68.49;96680.78;5051255;28;20296;-72
2022/06/12 14:43:11;;;;;;;4.00;3.70;;;;;;;21.67;69.82;96670.81;5041755;28;20305;-72
2022/06/12 14:45:48;;;;;;;3.00;2.80;;;;;;;21.49;68.57;96673.41;5049575;28;20616;-74
2022/06/12 14:48:19;;;;;;;2.83;2.63;;;;;;;21.55;68.54;96685.16;5047545;28;20617;-72
2022/06/12 14:50:47;;;;;;;4.07;3.00;;;;;;;21.64;68.92;96698.28;5014718;28;20238;-72
2022/06/12 14:53:14;;;;;;;3.77;3.10;;;;;;;21.41;69.60;96709.38;5048395;28;20965;-73
2022/06/12 14:55:43;;;;;;;5.27;3.00;;;;;;;21.34;70.38;96710.91;5048325;28;20197;-74
2022/06/12 14:58:36;;;;;;;3.40;3.10;;;;;;;21.21;71.55;96710.38;5048706;28;20205;-73
2022/06/12 15:01:09;;;;;;;3.10;2.70;;;;;;;20.98;70.76;96721.22;5029523;28;20248;-72
2022/06/12 15:03:37;;;;;;;2.67;2.00;;;;;;;20.79;68.88;96729.16;5037006;28;21032;-72
2022/06/12 15:06:05;;;;;;;2.37;1.97;;;;;;;20.65;67.18;96739.28;5041193;28;20367;-72
2022/06/12 15:08:39;;;;;;;2.07;1.87;;;;;;;20.57;66.79;96749.66;5030371;28;20209;-71
2022/06/12 15:11:17;;;;;;;1.30;1.20;;;;;;;20.56;69.09;96763.78;5030653;28;20703;-72
2022/06/12 15:13:47;;;;;;;1.20;1.10;;;;;;;20.49;69.47;96766.13;5029545;28;20280;-72
2022/06/12 15:16:16;;;;;;;2.33;1.30;;;;;;;20.19;72.27;96766.22;5031997;28;20268;-72
2022/06/12 15:18:44;;;;;;;3.73;1.50;;;;;;;20.22;72.95;96755.44;5047203;28;20695;-71
2022/06/12 15:21:30;;;;;;;2.07;1.70;;;;;;;20.28;73.43;96762.78;5030438;28;20196;-76
2022/06/12 15:23:57;;;;;;;2.43;1.80;;;;;;;20.46;74.38;96758.53;5048182;28;20269;-71
2022/06/12 15:31:57;;;;;;;5.00;3.47;;;;;;;20.40;76.80;96742.47;5047025;28;20189;-72
2022/06/12 15:34:28;;;;;;;;;;;;;;;20.24;77.85;96771.91;5048333;28;20196;-72
2022/06/12 15:36:55;;;;;;;;;;;;;;;20.23;77.96;96770.28;5049136;28;19920;-72
2022/06/12 15:39:22;;;;;;;;;;;;;;;20.09;78.91;96753.03;5029650;28;19928;-73
2022/06/12 15:41:49;;;;;;;;;;;;;;;19.92;79.85;96760.75;5047291;28;19920;-71
2022/06/12 15:44:18;;;;;;;;;;;;;;;19.84;81.41;96742.19;5067431;28;20014;-74
2022/06/12 15:46:46;;;;;;;;;;;;;;;18.95;81.85;96600.28;5048887;28;19956;-72
2022/06/12 15:49:19;;;;;;;;;;;;;;;19.79;82.09;96744.38;5055985;28;19943;-73
2022/06/12 15:51:47;;;;;;;;;;;;;;;19.80;83.09;96730.28;5033499;28;19931;-73
2022/06/12 15:54:17;;;;;;;;;;;;;;;19.81;83.14;96731.94;5068244;28;19920;-73
2022/06/12 15:56:46;;;;;;;;;;;;;;;19.76;84.01;96726.25;5048907;28;19920;-73
2022/06/12 15:59:13;;;;;;;;;;;;;;;19.62;84.28;96722.19;5068134;28;19955;-73
2022/06/12 16:01:40;;;;;;;;;;;;;;;19.69;84.62;96717.25;5048967;28;20449;-73
2022/06/12 16:04:07;;;;;;;;;;;;;;;19.75;83.88;96712.28;5068377;28;19920;-73
2022/06/12 16:06:35;;;;;;;;;;;;;;;19.69;85.81;96712.00;5067344;28;20028;-73
2022/06/12 16:09:02;;;;;;;;;;;;;;;19.66;85.43;96717.53;5032989;28;19951;-73
2022/06/12 16:11:28;;;;;;;;;;;;;;;19.68;84.95;96720.84;5050381;28;20418;-73
2022/06/12 16:13:55;;;;;;;;;;;;;;;19.81;82.09;96731.94;5066736;28;20314;-73
2022/06/12 16:16:22;;;;;;;;;;;;;;;19.98;76.73;96718.16;5058193;28;19921;-73
2022/06/12 16:18:49;;;;;;;;;;;;;;;20.06;74.95;96721.78;5046958;28;20403;-73
2022/06/12 16:21:16;;;;;;;;;;;;;;;20.04;75.22;96730.75;5048116;28;19944;-73
2022/06/12 16:23:43;;;;;;;;;;;;;;;20.04;75.01;96728.97;5028982;28;20020;-73
2022/06/12 16:26:10;;;;;;;;;;;;;;;20.15;73.96;96725.38;5047702;28;19971;-73
2022/06/12 16:28:38;;;;;;;;;;;;;;;20.23;74.77;96728.19;5048071;28;19929;-73
2022/06/12 16:31:05;;;;;;;;;;;;;;;20.33;74.85;96744.81;5046749;28;20400;-73
2022/06/12 16:33:32;;;;;;;;;;;;;;;20.44;75.63;96733.34;5047831;28;19940;-73
2022/06/12 16:36:00;;;;;;;;;;;;;;;20.43;75.34;96740.38;5046565;28;19921;-73
2022/06/12 16:38:28;;;;;;;;;;;;;;;20.47;75.62;96743.56;5030245;28;20023;-73
2022/06/12 16:40:56;;;;;;;;;;;;;;;20.43;75.98;96745.66;5046874;28;20366;-73
2022/06/12 16:43:23;;;;;;;;;;;;;;;20.44;76.84;96751.75;5047732;28;20366;-72
2022/06/12 16:45:51;;;;;;;;;;;;;;;20.42;76.76;96756.31;5047963;28;19925;-73
2022/06/12 16:48:18;;;;;;;;;;;;;;;20.43;77.37;96758.81;5047011;28;19979;-74